Gotse Delchev, Bulgaria
Current Conditions -  °F | °C
As of 10:50 AM on Monday 20 Oct 2014 (Local Time) from LGKV Reporting Station
Clear Clear  
Wind Chill: 61°   Ceiling: Unl
Heat Index: 61°   Visibility: 6mi
Dew Point: 50°   Wind: 5mph
Humidity: 68%   Direction: 120°ESE
Pressure: 30.21"   Gusts: NA
Location:  41.57°N, 23.74°E
Report Text: LGKV 200750Z 12004KT CAVOK 16/10 Q1023
Loading
Personal Weather Stations






























Interactive Weather Map
Tropical Storm Tracking
New forecast layout! Learn more

10-Day Weather Forecast

Advertisements
Track Severe Weather on mobile